Amistad, New Mexico
Current Conditions -  °F | °C
As of 1:53 PM on Thursday 20 Nov 2014 (Local Time) from KDHT Reporting Station
Clear Clear  
Wind Chill: 54°   Ceiling: Unl
Heat Index: 54°   Visibility: 10mi
Dew Point: 23°   Wind: 8mph
Humidity: 30%   Direction: 60°ENE
Pressure: 29.97"   Gusts: NA
Location:  35.92°N, 103.16°W
Report Text: KDHT 202053Z AUTO 06007KT 10SM CLR 12/M05 A2997 RMK AO2 SLP141 T01221050 56014
Loading
Personal Weather Stations






























Interactive Weather Map New forecast layout! Learn more

10-Day Weather Forecast

Advertisements
Track Severe Weather on mobile